Annette Island, AK

12:50 PM AKDT on April 27, 2015 (GMT -0800)
Annette Island | | Change Station
CLOSE
Current Station
Airport
Location: Annette Island,
Elevation: 112 ft
Nearby Weather Stations

Elev 112 ft 55.04 °N, 131.57 °W | Updated 24 minutes ago

Scattered Clouds
Scattered Clouds
50 °F
Feels Like 50 °F
N
14
Wind Variable Wind from SE
Gusts 21 mph

Today
High -- | Low -- °F
--% Chance of Precip.
Yesterday
High -- | Low -- °F
Precip. -- in
5:15 AM 8:14 PM
Waxing Gibbous, 67% visible
Pressure 29.90 in
Visibility 10.0 miles
Clouds Scattered Clouds 2600 ft
Scattered Clouds 4200 ft
Dew Point 42 °F
Humidity 74%
Rainfall 0.05 in
Snow Depth Not available.
UV 6 out of 12
Pollen Not available.
Air Quality Not available.
Flu Activity Sporadic
SPECI PANT 272026Z 14012G18KT 10SM SCT026 SCT042 10/06 A2990 RMK AO2 T01000056

More Conditions Fewer Conditions

Pressure 29.90 in
Visibility 10.0 miles
Clouds Scattered Clouds 2600 ft
Scattered Clouds 4200 ft
Dew Point 42 °F
Humidity 74%
Rainfall 0.05 in
Snow Depth Not available.
UV 6 out of 12
Pollen Not available.
Air Quality Not available.
Flu Activity Sporadic
SPECI PANT 272026Z 14012G18KT 10SM SCT026 SCT042 10/06 A2990 RMK AO2 T01000056

More Conditions Fewer Conditions

10-Day Weather Forecast

Almanac

Astronomy

Apr. 27, 2015 Rise Set
Actual Time
Civil Twilight
Nautical Twilight
Astronomical Twilight
Moon
Length of Visible Light
Length of Day
Tomorrow will be .
, % of the Moon is Illuminated

Today's Extremes

State Highs State Lows

Community

WunderPhotos

Upload Photos

1,817,421 photos uploaded!

WunderBlogs® & News

Nearby

Air Quality

  Air Quality AQ Index Pollutant
Not available.

Snow Depth

Station Depth Elevation

Earthquake Activity

City Distance Mag. Time & Date
Minimum magnitude displayed is 2.5.

Coastal Water Temperatures

Place Temperature

Stations

Nearby Weather Stations

Station Location Temp. Windchill Dew Point Humidity Wind Precip. Elev Updated Type